Belmont, Idaho
Current Conditions -  °F | °C
As of 10:15 PM on Wednesday 22 Oct 2014 (Local Time) from KCOE Reporting Station
Overcast Overcast  
Wind Chill: 50°   Ceiling: 6000
Heat Index: 50°   Visibility: 10mi
Dew Point: 46°   Wind: 6mph
Humidity: 87%   Direction: 160°SSE
Pressure: 29.8"   Gusts: NA
Location:  47.9325°N, 116.647°W
Report Text: KCOE 230515Z AUTO 16005KT 10SM FEW047 OVC060 10/08 A2980 RMK AO1
Loading
Personal Weather Stations






























Interactive Weather Map
Tropical Storm Tracking
New forecast layout! Learn more

10-Day Weather Forecast

Advertisements
Track Severe Weather on mobile